sensor_id;sensor_type;location;lat;lon;timestamp;pressure;altitude;pressure_sealevel;temperature;humidity
35435;BME280;21556;55.782;37.528;2023-07-02T00:02:16;98040.16;;;19.68;100.00
35435;BME280;21556;55.782;37.528;2023-07-02T00:04:43;98039.53;;;20.00;100.00
35435;BME280;21556;55.782;37.528;2023-07-02T00:07:09;98041.97;;;19.47;100.00
35435;BME280;21556;55.782;37.528;2023-07-02T00:09:35;98045.75;;;19.42;100.00
35435;BME280;21556;55.782;37.528;2023-07-02T00:12:01;98050.56;;;19.34;100.00
35435;BME280;21556;55.782;37.528;2023-07-02T00:14:26;98048.34;;;19.24;100.00
35435;BME280;21556;55.782;37.528;2023-07-02T00:16:52;98046.06;;;19.36;100.00
35435;BME280;21556;55.782;37.528;2023-07-02T00:19:18;98048.16;;;19.28;100.00
35435;BME280;21556;55.782;37.528;2023-07-02T00:21:44;98052.59;;;19.47;100.00
35435;BME280;21556;55.782;37.528;2023-07-02T00:24:10;98051.78;;;19.45;100.00
35435;BME280;21556;55.782;37.528;2023-07-02T00:26:37;98049.56;;;19.36;100.00
35435;BME280;21556;55.782;37.528;2023-07-02T00:29:04;98045.25;;;19.13;100.00
35435;BME280;21556;55.782;37.528;2023-07-02T00:31:32;98054.44;;;19.06;100.00
35435;BME280;21556;55.782;37.528;2023-07-02T00:33:59;98046.19;;;19.12;100.00
35435;BME280;21556;55.782;37.528;2023-07-02T00:36:29;98046.53;;;19.25;100.00
35435;BME280;21556;55.782;37.528;2023-07-02T00:38:55;98047.47;;;19.04;100.00
35435;BME280;21556;55.782;37.528;2023-07-02T00:41:22;98043.81;;;19.06;100.00
35435;BME280;21556;55.782;37.528;2023-07-02T00:43:48;98052.31;;;19.14;100.00
35435;BME280;21556;55.782;37.528;2023-07-02T00:46:16;98055.03;;;19.33;100.00
35435;BME280;21556;55.782;37.528;2023-07-02T00:48:50;98052.91;;;19.21;100.00
35435;BME280;21556;55.782;37.528;2023-07-02T00:51:21;98070.59;;;19.02;100.00
35435;BME280;21556;55.782;37.528;2023-07-02T00:53:49;98065.00;;;19.08;100.00
35435;BME280;21556;55.782;37.528;2023-07-02T00:56:16;98070.47;;;19.05;100.00
35435;BME280;21556;55.782;37.528;2023-07-02T00:58:44;98071.53;;;19.00;100.00
35435;BME280;21556;55.782;37.528;2023-07-02T01:01:15;98074.16;;;19.41;100.00
35435;BME280;21556;55.782;37.528;2023-07-02T01:04:02;98071.44;;;19.43;100.00
35435;BME280;21556;55.782;37.528;2023-07-02T01:06:35;98074.56;;;19.32;100.00
35435;BME280;21556;55.782;37.528;2023-07-02T01:09:05;98067.25;;;19.37;100.00
35435;BME280;21556;55.782;37.528;2023-07-02T01:11:35;98075.50;;;19.11;100.00
35435;BME280;21556;55.782;37.528;2023-07-02T01:14:07;98077.69;;;19.21;100.00
35435;BME280;21556;55.782;37.528;2023-07-02T01:16:36;98075.25;;;19.56;100.00
35435;BME280;21556;55.782;37.528;2023-07-02T01:19:05;98066.03;;;19.44;100.00
35435;BME280;21556;55.782;37.528;2023-07-02T01:21:36;98075.78;;;19.25;100.00
35435;BME280;21556;55.782;37.528;2023-07-02T01:24:03;98073.59;;;19.14;100.00
35435;BME280;21556;55.782;37.528;2023-07-02T01:26:32;98077.41;;;19.48;100.00
35435;BME280;21556;55.782;37.528;2023-07-02T01:29:13;98080.28;;;19.43;100.00
35435;BME280;21556;55.782;37.528;2023-07-02T01:31:40;98077.88;;;19.37;100.00
35435;BME280;21556;55.782;37.528;2023-07-02T01:34:06;98075.66;;;19.28;100.00
35435;BME280;21556;55.782;37.528;2023-07-02T01:36:33;98083.94;;;19.60;100.00
35435;BME280;21556;55.782;37.528;2023-07-02T01:38:59;98082.00;;;19.24;100.00
35435;BME280;21556;55.782;37.528;2023-07-02T01:41:25;98077.78;;;19.39;100.00
35435;BME280;21556;55.782;37.528;2023-07-02T01:43:51;98087.19;;;18.86;100.00
35435;BME280;21556;55.782;37.528;2023-07-02T01:46:17;98085.84;;;19.17;100.00
35435;BME280;21556;55.782;37.528;2023-07-02T01:48:44;98083.03;;;19.21;100.00
35435;BME280;21556;55.782;37.528;2023-07-02T01:51:10;98085.63;;;19.42;100.00
35435;BME280;21556;55.782;37.528;2023-07-02T01:53:36;98083.41;;;19.33;100.00
35435;BME280;21556;55.782;37.528;2023-07-02T01:56:02;98088.59;;;19.36;100.00
35435;BME280;21556;55.782;37.528;2023-07-02T01:58:28;98086.09;;;19.52;100.00
35435;BME280;21556;55.782;37.528;2023-07-02T02:00:54;98087.75;;;19.54;100.00
35435;BME280;21556;55.782;37.528;2023-07-02T02:03:22;98085.00;;;19.76;100.00
35435;BME280;21556;55.782;37.528;2023-07-02T02:05:48;98094.63;;;19.39;100.00
35435;BME280;21556;55.782;37.528;2023-07-02T02:08:14;98087.44;;;19.41;100.00
35435;BME280;21556;55.782;37.528;2023-07-02T02:10:40;98088.84;;;19.50;100.00
35435;BME280;21556;55.782;37.528;2023-07-02T02:13:06;98097.81;;;19.47;100.00
35435;BME280;21556;55.782;37.528;2023-07-02T02:15:32;98096.66;;;19.74;100.00
35435;BME280;21556;55.782;37.528;2023-07-02T02:17:58;98095.66;;;19.56;100.00
35435;BME280;21556;55.782;37.528;2023-07-02T02:20:25;98090.06;;;19.62;100.00
35435;BME280;21556;55.782;37.528;2023-07-02T02:22:51;98075.47;;;19.52;100.00
35435;BME280;21556;55.782;37.528;2023-07-02T02:25:17;98080.97;;;19.28;100.00
35435;BME280;21556;55.782;37.528;2023-07-02T02:27:43;98077.56;;;19.24;100.00
35435;BME280;21556;55.782;37.528;2023-07-02T02:30:09;98083.34;;;19.14;100.00
35435;BME280;21556;55.782;37.528;2023-07-02T02:32:36;98086.50;;;19.42;100.00
35435;BME280;21556;55.782;37.528;2023-07-02T02:35:03;98090.34;;;19.76;100.00
35435;BME280;21556;55.782;37.528;2023-07-02T02:37:33;98086.22;;;19.69;100.00
35435;BME280;21556;55.782;37.528;2023-07-02T02:40:00;98085.03;;;19.56;100.00
35435;BME280;21556;55.782;37.528;2023-07-02T02:42:27;98088.16;;;19.45;100.00
35435;BME280;21556;55.782;37.528;2023-07-02T02:44:53;98083.09;;;19.59;100.00
35435;BME280;21556;55.782;37.528;2023-07-02T02:47:19;98090.06;;;19.02;100.00
35435;BME280;21556;55.782;37.528;2023-07-02T02:49:45;98096.03;;;19.28;100.00
35435;BME280;21556;55.782;37.528;2023-07-02T02:52:11;98094.78;;;19.36;100.00
35435;BME280;21556;55.782;37.528;2023-07-02T02:54:40;98090.91;;;19.43;100.00
35435;BME280;21556;55.782;37.528;2023-07-02T02:57:06;98098.13;;;19.21;100.00
35435;BME280;21556;55.782;37.528;2023-07-02T02:59:32;98100.22;;;19.13;100.00
35435;BME280;21556;55.782;37.528;2023-07-02T03:01:57;98100.94;;;19.37;100.00
35435;BME280;21556;55.782;37.528;2023-07-02T03:04:23;98103.94;;;19.29;100.00
35435;BME280;21556;55.782;37.528;2023-07-02T03:06:51;98106.31;;;18.94;100.00
35435;BME280;21556;55.782;37.528;2023-07-02T03:09:19;98110.84;;;19.13;100.00
35435;BME280;21556;55.782;37.528;2023-07-02T03:11:46;98112.03;;;18.63;100.00
35435;BME280;21556;55.782;37.528;2023-07-02T03:14:13;98129.47;;;18.70;100.00
35435;BME280;21556;55.782;37.528;2023-07-02T03:16:41;98131.38;;;18.45;100.00
35435;BME280;21556;55.782;37.528;2023-07-02T03:19:07;98130.25;;;18.94;100.00
35435;BME280;21556;55.782;37.528;2023-07-02T03:21:33;98132.88;;;18.74;100.00
35435;BME280;21556;55.782;37.528;2023-07-02T03:23:59;98131.69;;;18.59;100.00
35435;BME280;21556;55.782;37.528;2023-07-02T03:26:25;98139.09;;;18.73;100.00
35435;BME280;21556;55.782;37.528;2023-07-02T03:28:51;98138.34;;;18.91;100.00
35435;BME280;21556;55.782;37.528;2023-07-02T03:31:17;98131.38;;;18.45;100.00
35435;BME280;21556;55.782;37.528;2023-07-02T03:33:43;98135.38;;;18.55;100.00
35435;BME280;21556;55.782;37.528;2023-07-02T03:36:09;98133.13;;;18.66;100.00
35435;BME280;21556;55.782;37.528;2023-07-02T03:38:34;98133.66;;;18.32;100.00
35435;BME280;21556;55.782;37.528;2023-07-02T03:41:00;98135.56;;;18.50;100.00
35435;BME280;21556;55.782;37.528;2023-07-02T03:43:26;98136.50;;;18.93;100.00
35435;BME280;21556;55.782;37.528;2023-07-02T03:45:52;98141.59;;;18.98;100.00
35435;BME280;21556;55.782;37.528;2023-07-02T03:48:18;98136.59;;;19.33;100.00
35435;BME280;21556;55.782;37.528;2023-07-02T03:50:44;98149.66;;;18.96;100.00
35435;BME280;21556;55.782;37.528;2023-07-02T03:53:10;98142.53;;;18.97;100.00
35435;BME280;21556;55.782;37.528;2023-07-02T03:55:36;98145.06;;;19.20;100.00
35435;BME280;21556;55.782;37.528;2023-07-02T03:58:02;98149.13;;;19.09;100.00
35435;BME280;21556;55.782;37.528;2023-07-02T04:00:27;98139.88;;;19.58;100.00
35435;BME280;21556;55.782;37.528;2023-07-02T04:02:53;98134.78;;;19.54;100.00
35435;BME280;21556;55.782;37.528;2023-07-02T04:05:19;98131.78;;;19.20;100.00
35435;BME280;21556;55.782;37.528;2023-07-02T04:07:45;98136.75;;;19.48;100.00
35435;BME280;21556;55.782;37.528;2023-07-02T04:10:11;98129.38;;;19.55;100.00
35435;BME280;21556;55.782;37.528;2023-07-02T04:12:37;98141.88;;;19.74;100.00
35435;BME280;21556;55.782;37.528;2023-07-02T04:15:04;98140.03;;;19.76;100.00
35435;BME280;21556;55.782;37.528;2023-07-02T04:17:32;98137.91;;;19.63;100.00
35435;BME280;21556;55.782;37.528;2023-07-02T04:20:00;98136.72;;;19.89;100.00
35435;BME280;21556;55.782;37.528;2023-07-02T04:22:26;98141.00;;;19.93;100.00
35435;BME280;21556;55.782;37.528;2023-07-02T04:24:51;98151.91;;;20.06;100.00
35435;BME280;21556;55.782;37.528;2023-07-02T04:27:17;98157.09;;;20.09;100.00
35435;BME280;21556;55.782;37.528;2023-07-02T04:29:46;98155.59;;;20.60;100.00
35435;BME280;21556;55.782;37.528;2023-07-02T04:32:12;98151.13;;;20.42;100.00
35435;BME280;21556;55.782;37.528;2023-07-02T04:34:38;98150.78;;;20.50;100.00
35435;BME280;21556;55.782;37.528;2023-07-02T04:37:04;98154.22;;;20.33;100.00
35435;BME280;21556;55.782;37.528;2023-07-02T04:39:31;98154.06;;;20.74;100.00
35435;BME280;21556;55.782;37.528;2023-07-02T04:41:57;98156.44;;;20.42;100.00
35435;BME280;21556;55.782;37.528;2023-07-02T04:44:23;98168.56;;;20.30;100.00
35435;BME280;21556;55.782;37.528;2023-07-02T04:46:59;98155.75;;;20.57;100.00
35435;BME280;21556;55.782;37.528;2023-07-02T04:49:25;98158.53;;;20.54;100.00
35435;BME280;21556;55.782;37.528;2023-07-02T04:51:51;98161.94;;;20.58;100.00
35435;BME280;21556;55.782;37.528;2023-07-02T04:54:22;98158.84;;;20.67;100.00
35435;BME280;21556;55.782;37.528;2023-07-02T04:56:48;98164.59;;;20.58;100.00
35435;BME280;21556;55.782;37.528;2023-07-02T04:59:14;98160.56;;;20.68;100.00
35435;BME280;21556;55.782;37.528;2023-07-02T05:01:41;98162.41;;;20.85;100.00
35435;BME280;21556;55.782;37.528;2023-07-02T05:04:09;98154.16;;;20.89;100.00
35435;BME280;21556;55.782;37.528;2023-07-02T05:06:36;98162.63;;;20.98;100.00
35435;BME280;21556;55.782;37.528;2023-07-02T05:09:02;98161.16;;;21.27;100.00
35435;BME280;21556;55.782;37.528;2023-07-02T05:11:28;98163.50;;;21.15;100.00
35435;BME280;21556;55.782;37.528;2023-07-02T05:13:54;98163.81;;;21.09;100.00
35435;BME280;21556;55.782;37.528;2023-07-02T05:16:20;98160.38;;;21.07;100.00
35435;BME280;21556;55.782;37.528;2023-07-02T05:18:45;98151.81;;;21.01;100.00
35435;BME280;21556;55.782;37.528;2023-07-02T05:21:11;98160.34;;;20.90;100.00
35435;BME280;21556;55.782;37.528;2023-07-02T05:23:37;98161.16;;;21.27;100.00
35435;BME280;21556;55.782;37.528;2023-07-02T05:26:03;98164.38;;;21.16;100.00
35435;BME280;21556;55.782;37.528;2023-07-02T05:28:29;98157.47;;;21.12;100.00
35435;BME280;21556;55.782;37.528;2023-07-02T05:30:55;98153.00;;;21.12;100.00
35435;BME280;21556;55.782;37.528;2023-07-02T05:33:21;98160.41;;;21.42;100.00
35435;BME280;21556;55.782;37.528;2023-07-02T05:35:48;98156.31;;;21.18;100.00
35435;BME280;21556;55.782;37.528;2023-07-02T05:38:14;98162.75;;;21.48;100.00
35435;BME280;21556;55.782;37.528;2023-07-02T05:40:40;98161.28;;;21.43;100.00
35435;BME280;21556;55.782;37.528;2023-07-02T05:43:05;98160.69;;;21.71;100.00
35435;BME280;21556;55.782;37.528;2023-07-02T05:45:31;98157.81;;;21.91;100.00
35435;BME280;21556;55.782;37.528;2023-07-02T05:47:57;98161.63;;;22.03;100.00
35435;BME280;21556;55.782;37.528;2023-07-02T05:50:23;98158.19;;;22.01;100.00
35435;BME280;21556;55.782;37.528;2023-07-02T05:52:49;98158.22;;;21.83;100.00
35435;BME280;21556;55.782;37.528;2023-07-02T05:55:15;98164.19;;;21.71;100.00
35435;BME280;21556;55.782;37.528;2023-07-02T05:57:41;98157.44;;;21.81;100.00
35435;BME280;21556;55.782;37.528;2023-07-02T06:00:07;98163.03;;;21.77;100.00
35435;BME280;21556;55.782;37.528;2023-07-02T06:02:38;98173.03;;;21.56;100.00
35435;BME280;21556;55.782;37.528;2023-07-02T06:05:05;98167.81;;;21.70;100.00
35435;BME280;21556;55.782;37.528;2023-07-02T06:07:31;98157.91;;;22.23;100.00
35435;BME280;21556;55.782;37.528;2023-07-02T06:09:57;98161.28;;;22.26;100.00
35435;BME280;21556;55.782;37.528;2023-07-02T06:12:23;98156.25;;;22.20;100.00
35435;BME280;21556;55.782;37.528;2023-07-02T06:14:49;98162.56;;;22.67;100.00
35435;BME280;21556;55.782;37.528;2023-07-02T06:17:15;98165.56;;;22.61;100.00
35435;BME280;21556;55.782;37.528;2023-07-02T06:19:41;98164.72;;;22.92;100.00
35435;BME280;21556;55.782;37.528;2023-07-02T06:22:07;98156.31;;;23.14;100.00
35435;BME280;21556;55.782;37.528;2023-07-02T06:24:33;98153.00;;;23.24;100.00
35435;BME280;21556;55.782;37.528;2023-07-02T06:26:59;98163.28;;;23.46;100.00
35435;BME280;21556;55.782;37.528;2023-07-02T06:29:25;98155.91;;;23.80;100.00
35435;BME280;21556;55.782;37.528;2023-07-02T06:31:51;98159.34;;;23.52;100.00
35435;BME280;21556;55.782;37.528;2023-07-02T06:34:17;98158.75;;;23.33;100.00
35435;BME280;21556;55.782;37.528;2023-07-02T06:36:43;98163.28;;;23.46;100.00
35435;BME280;21556;55.782;37.528;2023-07-02T06:39:09;98166.78;;;23.33;100.00
35435;BME280;21556;55.782;37.528;2023-07-02T06:41:37;98161.19;;;23.51;100.00
35435;BME280;21556;55.782;37.528;2023-07-02T06:44:03;98164.91;;;23.63;100.00
35435;BME280;21556;55.782;37.528;2023-07-02T06:46:30;98158.63;;;23.64;100.00
35435;BME280;21556;55.782;37.528;2023-07-02T06:48:56;98159.47;;;23.50;100.00
35435;BME280;21556;55.782;37.528;2023-07-02T06:51:22;98164.03;;;23.78;100.00
35435;BME280;21556;55.782;37.528;2023-07-02T06:53:48;98161.13;;;23.67;100.00
35435;BME280;21556;55.782;37.528;2023-07-02T06:56:14;98150.91;;;23.74;100.00
35435;BME280;21556;55.782;37.528;2023-07-02T06:58:43;98160.03;;;23.86;100.00
35435;BME280;21556;55.782;37.528;2023-07-02T07:01:09;98166.69;;;23.93;100.00
35435;BME280;21556;55.782;37.528;2023-07-02T07:03:35;98152.25;;;23.95;100.00
35435;BME280;21556;55.782;37.528;2023-07-02T07:06:02;98164.13;;;24.20;100.00
35435;BME280;21556;55.782;37.528;2023-07-02T07:08:28;98164.00;;;24.36;100.00
35435;BME280;21556;55.782;37.528;2023-07-02T07:10:54;98165.06;;;24.33;100.00
35435;BME280;21556;55.782;37.528;2023-07-02T07:13:20;98166.47;;;24.67;100.00
35435;BME280;21556;55.782;37.528;2023-07-02T07:15:46;98164.19;;;24.47;100.00
35435;BME280;21556;55.782;37.528;2023-07-02T07:18:12;98173.25;;;24.73;100.00
35435;BME280;21556;55.782;37.528;2023-07-02T07:20:41;98170.66;;;24.71;100.00
35435;BME280;21556;55.782;37.528;2023-07-02T07:23:07;98168.00;;;24.57;100.00
35435;BME280;21556;55.782;37.528;2023-07-02T07:25:33;98178.72;;;24.57;100.00
35435;BME280;21556;55.782;37.528;2023-07-02T07:27:59;98172.84;;;25.06;100.00
35435;BME280;21556;55.782;37.528;2023-07-02T07:30:26;98183.19;;;24.98;100.00
35435;BME280;21556;55.782;37.528;2023-07-02T07:32:53;98178.16;;;25.60;100.00
35435;BME280;21556;55.782;37.528;2023-07-02T07:35:20;98181.03;;;25.57;100.00
35435;BME280;21556;55.782;37.528;2023-07-02T07:37:47;98172.13;;;26.33;100.00
35435;BME280;21556;55.782;37.528;2023-07-02T07:40:13;98173.88;;;26.47;100.00
35435;BME280;21556;55.782;37.528;2023-07-02T07:42:41;98173.84;;;26.84;100.00
35435;BME280;21556;55.782;37.528;2023-07-02T07:45:08;98179.59;;;26.67;100.00
35435;BME280;21556;55.782;37.528;2023-07-02T07:47:34;98173.56;;;27.00;100.00
35435;BME280;21556;55.782;37.528;2023-07-02T07:50:00;98173.94;;;27.66;100.00
35435;BME280;21556;55.782;37.528;2023-07-02T07:52:27;98176.25;;;28.17;100.00
35435;BME280;21556;55.782;37.528;2023-07-02T07:54:53;98177.19;;;27.11;100.00
35435;BME280;21556;55.782;37.528;2023-07-02T07:57:18;98174.53;;;27.93;100.00
35435;BME280;21556;55.782;37.528;2023-07-02T07:59:44;98171.88;;;26.86;100.00
35435;BME280;21556;55.782;37.528;2023-07-02T08:02:10;98164.84;;;26.10;100.00
35435;BME280;21556;55.782;37.528;2023-07-02T08:04:36;98168.09;;;25.89;100.00
35435;BME280;21556;55.782;37.528;2023-07-02T08:07:02;98187.75;;;25.90;100.00
35435;BME280;21556;55.782;37.528;2023-07-02T08:09:30;98185.13;;;25.76;100.00
35435;BME280;21556;55.782;37.528;2023-07-02T08:11:55;98184.34;;;25.48;100.00
35435;BME280;21556;55.782;37.528;2023-07-02T08:14:21;98184.16;;;25.77;100.00
35435;BME280;21556;55.782;37.528;2023-07-02T08:16:47;98173.88;;;26.47;100.00
35435;BME280;21556;55.782;37.528;2023-07-02T08:19:13;98188.94;;;25.86;100.00
35435;BME280;21556;55.782;37.528;2023-07-02T08:21:39;98184.72;;;27.30;100.00
35435;BME280;21556;55.782;37.528;2023-07-02T08:24:05;98182.34;;;27.85;100.00
35435;BME280;21556;55.782;37.528;2023-07-02T08:26:32;98185.34;;;28.38;100.00
35435;BME280;21556;55.782;37.528;2023-07-02T08:28:57;98167.63;;;28.79;100.00
35435;BME280;21556;55.782;37.528;2023-07-02T08:31:23;98186.03;;;28.06;100.00
35435;BME280;21556;55.782;37.528;2023-07-02T08:33:49;98181.03;;;28.02;100.00
35435;BME280;21556;55.782;37.528;2023-07-02T08:36:15;98182.53;;;29.49;96.12
35435;BME280;21556;55.782;37.528;2023-07-02T08:38:41;98173.06;;;29.76;92.72
35435;BME280;21556;55.782;37.528;2023-07-02T08:41:09;98182.03;;;28.57;100.00
35435;BME280;21556;55.782;37.528;2023-07-02T08:43:35;98179.47;;;28.55;100.00
35435;BME280;21556;55.782;37.528;2023-07-02T08:46:02;98183.28;;;29.93;89.38
35435;BME280;21556;55.782;37.528;2023-07-02T08:48:28;98181.28;;;29.53;99.99
35435;BME280;21556;55.782;37.528;2023-07-02T08:50:56;98168.94;;;30.02;91.18
35435;BME280;21556;55.782;37.528;2023-07-02T08:53:22;98166.63;;;30.49;84.82
35435;BME280;21556;55.782;37.528;2023-07-02T08:55:55;98164.25;;;30.65;87.72
35435;BME280;21556;55.782;37.528;2023-07-02T08:58:22;98165.34;;;30.53;91.01
35435;BME280;21556;55.782;37.528;2023-07-02T09:01:04;98170.44;;;30.16;85.47
35435;BME280;21556;55.782;37.528;2023-07-02T09:03:30;98163.41;;;30.04;93.39
35435;BME280;21556;55.782;37.528;2023-07-02T09:05:56;98168.75;;;30.45;86.16
35435;BME280;21556;55.782;37.528;2023-07-02T09:08:26;98176.31;;;29.05;85.31
35435;BME280;21556;55.782;37.528;2023-07-02T09:10:52;98170.97;;;27.46;84.41
35435;BME280;21556;55.782;37.528;2023-07-02T09:13:17;98169.13;;;27.47;85.25
35435;BME280;21556;55.782;37.528;2023-07-02T09:15:43;98179.09;;;28.04;82.05
35435;BME280;21556;55.782;37.528;2023-07-02T09:18:19;98180.66;;;27.01;91.99
35435;BME280;21556;55.782;37.528;2023-07-02T09:20:46;98182.13;;;27.18;95.14
35435;BME280;21556;55.782;37.528;2023-07-02T09:23:12;98180.03;;;26.97;95.43
35435;BME280;21556;55.782;37.528;2023-07-02T09:25:40;98180.66;;;28.06;80.96
35435;BME280;21556;55.782;37.528;2023-07-02T09:28:34;98180.59;;;29.72;68.16
35435;BME280;21556;55.782;37.528;2023-07-02T09:31:00;98180.91;;;29.25;64.42
35435;BME280;21556;55.782;37.528;2023-07-02T09:33:28;98186.69;;;28.33;72.71
35435;BME280;21556;55.782;37.528;2023-07-02T09:35:54;98188.94;;;27.34;84.16
35435;BME280;21556;55.782;37.528;2023-07-02T09:38:21;98189.03;;;26.23;92.65
35435;BME280;21556;55.782;37.528;2023-07-02T09:40:51;98194.31;;;25.86;98.30
35435;BME280;21556;55.782;37.528;2023-07-02T09:43:18;98178.31;;;27.91;82.41
35435;BME280;21556;55.782;37.528;2023-07-02T09:45:46;98164.88;;;28.47;73.52
35435;BME280;21556;55.782;37.528;2023-07-02T09:48:17;98168.53;;;28.23;78.28
35435;BME280;21556;55.782;37.528;2023-07-02T09:50:45;98169.63;;;27.98;72.42
35435;BME280;21556;55.782;37.528;2023-07-02T09:53:12;98171.22;;;27.78;77.38
35435;BME280;21556;55.782;37.528;2023-07-02T09:55:44;98186.09;;;29.49;60.53
35435;BME280;21556;55.782;37.528;2023-07-02T09:58:10;98165.13;;;30.26;59.68
35435;BME280;21556;55.782;37.528;2023-07-02T10:00:40;98168.47;;;29.55;63.31
35435;BME280;21556;55.782;37.528;2023-07-02T10:03:06;98160.19;;;28.60;68.09
35435;BME280;21556;55.782;37.528;2023-07-02T10:05:33;98175.78;;;28.00;77.84
35435;BME280;21556;55.782;37.528;2023-07-02T10:08:12;98181.81;;;27.69;79.29
35435;BME280;21556;55.782;37.528;2023-07-02T10:10:43;98174.94;;;27.65;77.52
35435;BME280;21556;55.782;37.528;2023-07-02T10:13:09;98183.38;;;27.25;80.26
35435;BME280;21556;55.782;37.528;2023-07-02T10:15:35;98186.28;;;27.22;84.41
35435;BME280;21556;55.782;37.528;2023-07-02T10:18:04;98184.00;;;27.64;76.49
35435;BME280;21556;55.782;37.528;2023-07-02T10:20:38;98193.28;;;26.63;87.64
35435;BME280;21556;55.782;37.528;2023-07-02T10:23:06;98191.19;;;25.92;90.87
35435;BME280;21556;55.782;37.528;2023-07-02T10:25:34;98191.84;;;26.08;89.17
35435;BME280;21556;55.782;37.528;2023-07-02T10:28:20;98196.28;;;25.57;89.52
35435;BME280;21556;55.782;37.528;2023-07-02T10:30:48;98193.44;;;25.98;88.13
35435;BME280;21556;55.782;37.528;2023-07-02T10:33:18;98188.06;;;26.36;85.86
35435;BME280;21556;55.782;37.528;2023-07-02T10:35:47;98186.09;;;26.88;82.72
35435;BME280;21556;55.782;37.528;2023-07-02T10:38:17;98184.38;;;28.39;70.99
35435;BME280;21556;55.782;37.528;2023-07-02T10:40:43;98176.25;;;28.73;64.89
35435;BME280;21556;55.782;37.528;2023-07-02T10:43:09;98171.53;;;29.09;66.15
35435;BME280;21556;55.782;37.528;2023-07-02T10:45:35;98177.22;;;28.72;69.93
35435;BME280;21556;55.782;37.528;2023-07-02T10:48:03;98182.50;;;29.60;58.65
35435;BME280;21556;55.782;37.528;2023-07-02T10:50:31;98188.84;;;29.38;60.41
35435;BME280;21556;55.782;37.528;2023-07-02T10:52:59;98180.19;;;29.44;62.99
35435;BME280;21556;55.782;37.528;2023-07-02T10:55:26;98185.34;;;28.38;75.13
35435;BME280;21556;55.782;37.528;2023-07-02T10:58:07;98196.50;;;28.34;68.61
35435;BME280;21556;55.782;37.528;2023-07-02T11:00:46;98187.00;;;28.95;55.96
35435;BME280;21556;55.782;37.528;2023-07-02T11:03:20;98190.34;;;29.63;54.40
35435;BME280;21556;55.782;37.528;2023-07-02T11:05:47;98185.50;;;30.09;52.45
35435;BME280;21556;55.782;37.528;2023-07-02T11:08:14;98188.13;;;29.99;51.81
35435;BME280;21556;55.782;37.528;2023-07-02T11:10:40;98201.75;;;28.58;58.10
35435;BME280;21556;55.782;37.528;2023-07-02T11:13:17;98190.72;;;29.59;55.90
35435;BME280;21556;55.782;37.528;2023-07-02T11:15:44;98205.03;;;28.05;68.37
35435;BME280;21556;55.782;37.528;2023-07-02T11:18:14;98193.19;;;28.30;60.86
35435;BME280;21556;55.782;37.528;2023-07-02T11:20:42;98206.97;;;27.92;71.17
35435;BME280;21556;55.782;37.528;2023-07-02T11:23:18;98201.75;;;28.35;65.06
35435;BME280;21556;55.782;37.528;2023-07-02T11:25:55;98202.50;;;28.15;68.61
35435;BME280;21556;55.782;37.528;2023-07-02T11:28:23;98191.19;;;28.10;65.54
35435;BME280;21556;55.782;37.528;2023-07-02T11:30:49;98200.63;;;27.93;72.07
35435;BME280;21556;55.782;37.528;2023-07-02T11:33:15;98203.09;;;28.07;64.06
35435;BME280;21556;55.782;37.528;2023-07-02T11:35:41;98192.31;;;28.07;65.30
35435;BME280;21556;55.782;37.528;2023-07-02T11:38:09;98196.69;;;27.50;73.35
35435;BME280;21556;55.782;37.528;2023-07-02T11:40:38;98204.50;;;27.42;71.27
35435;BME280;21556;55.782;37.528;2023-07-02T11:43:05;98209.72;;;27.32;68.69
35435;BME280;21556;55.782;37.528;2023-07-02T11:45:31;98206.44;;;27.40;68.59
35435;BME280;21556;55.782;37.528;2023-07-02T11:47:57;98191.06;;;27.53;69.94
35435;BME280;21556;55.782;37.528;2023-07-02T11:50:23;98192.84;;;26.70;79.07
35435;BME280;21556;55.782;37.528;2023-07-02T11:52:49;98203.63;;;26.44;79.88
35435;BME280;21556;55.782;37.528;2023-07-02T11:55:15;98211.75;;;26.68;79.34
35435;BME280;21556;55.782;37.528;2023-07-02T11:57:41;98210.78;;;27.06;77.14
35435;BME280;21556;55.782;37.528;2023-07-02T12:00:07;98206.44;;;26.55;78.16
35435;BME280;21556;55.782;37.528;2023-07-02T12:02:34;98209.78;;;26.83;78.36
35435;BME280;21556;55.782;37.528;2023-07-02T12:05:00;98214.50;;;26.92;73.18
35435;BME280;21556;55.782;37.528;2023-07-02T12:07:26;98201.16;;;26.41;73.72
35435;BME280;21556;55.782;37.528;2023-07-02T12:09:52;98225.63;;;26.75;68.58
35435;BME280;21556;55.782;37.528;2023-07-02T12:12:18;98207.84;;;26.23;67.85
35435;BME280;21556;55.782;37.528;2023-07-02T12:14:44;98214.59;;;26.54;70.66
35435;BME280;21556;55.782;37.528;2023-07-02T12:17:10;98205.59;;;26.79;62.10
35435;BME280;21556;55.782;37.528;2023-07-02T12:19:39;98203.94;;;26.89;63.87
35435;BME280;21556;55.782;37.528;2023-07-02T12:22:06;98205.88;;;26.50;70.68
35435;BME280;21556;55.782;37.528;2023-07-02T12:24:32;98203.84;;;26.54;72.40
35435;BME280;21556;55.782;37.528;2023-07-02T12:26:59;98211.47;;;26.22;73.81
35435;BME280;21556;55.782;37.528;2023-07-02T12:29:25;98208.69;;;26.85;67.69
35435;BME280;21556;55.782;37.528;2023-07-02T12:31:50;98212.66;;;26.93;62.61
35435;BME280;21556;55.782;37.528;2023-07-02T12:34:16;98207.44;;;26.78;62.31
35435;BME280;21556;55.782;37.528;2023-07-02T12:36:42;98212.13;;;26.51;66.19
35435;BME280;21556;55.782;37.528;2023-07-02T12:39:08;98209.56;;;26.86;63.22
35435;BME280;21556;55.782;37.528;2023-07-02T12:41:34;98214.78;;;26.63;61.87
35435;BME280;21556;55.782;37.528;2023-07-02T12:44:00;98210.31;;;26.88;59.77